createdAt,value
2018-12-31T00:00:54.465Z,13.10
2018-12-31T00:03:23.737Z,13.40
2018-12-31T00:05:53.429Z,13.33
2018-12-31T00:08:22.753Z,13.13
2018-12-31T00:10:52.080Z,12.17
2018-12-31T00:13:21.413Z,12.53
2018-12-31T00:15:50.625Z,13.97
2018-12-31T00:18:19.926Z,12.30
2018-12-31T00:20:49.727Z,12.10
2018-12-31T00:23:19.433Z,12.10
2018-12-31T00:25:50.205Z,12.60
2018-12-31T00:28:19.559Z,13.23
2018-12-31T00:30:49.010Z,12.53
2018-12-31T00:33:18.248Z,12.97
2018-12-31T00:35:47.607Z,13.50
2018-12-31T00:38:17.025Z,13.07
2018-12-31T00:40:46.269Z,11.70
2018-12-31T00:43:15.493Z,11.80
2018-12-31T00:45:44.950Z,11.90
2018-12-31T00:48:14.248Z,12.20
2018-12-31T00:50:43.826Z,12.57
2018-12-31T00:53:13.397Z,11.60
2018-12-31T00:55:42.949Z,11.10
2018-12-31T00:58:12.506Z,12.33
2018-12-31T01:00:41.805Z,11.43
2018-12-31T01:03:11.104Z,12.20
2018-12-31T01:05:40.492Z,12.13
2018-12-31T01:08:10.112Z,12.73
2018-12-31T01:10:40.100Z,11.80
2018-12-31T01:13:09.518Z,12.30
2018-12-31T01:15:38.937Z,11.57
2018-12-31T01:18:08.134Z,11.67
2018-12-31T01:20:37.441Z,12.57
2018-12-31T01:23:06.973Z,11.97
2018-12-31T01:25:36.262Z,12.37
2018-12-31T01:28:05.540Z,12.87
2018-12-31T01:30:34.831Z,13.70
2018-12-31T01:33:04.444Z,13.30
2018-12-31T01:35:34.545Z,12.00
2018-12-31T01:38:04.300Z,12.57
2018-12-31T01:40:33.781Z,12.77
2018-12-31T01:43:03.153Z,12.93
2018-12-31T01:45:33.682Z,12.67
2018-12-31T01:48:03.109Z,12.90
2018-12-31T01:50:32.669Z,12.00
2018-12-31T01:53:01.979Z,14.70
2018-12-31T01:55:31.437Z,20.37
2018-12-31T01:58:01.048Z,12.93
2018-12-31T02:00:31.681Z,13.00
2018-12-31T02:03:01.415Z,13.30
2018-12-31T02:05:30.805Z,13.10
2018-12-31T02:08:00.258Z,15.50
2018-12-31T02:10:29.815Z,13.10
2018-12-31T02:12:59.062Z,13.20
2018-12-31T02:15:28.341Z,12.00
2018-12-31T02:17:57.777Z,14.20
2018-12-31T02:20:27.048Z,12.20
2018-12-31T02:22:56.536Z,12.53
2018-12-31T02:25:25.781Z,13.27
2018-12-31T02:27:54.905Z,12.33
2018-12-31T02:30:24.511Z,12.63
2018-12-31T02:32:53.865Z,11.87
2018-12-31T02:35:23.169Z,12.17
2018-12-31T02:37:52.532Z,12.10
2018-12-31T02:40:21.833Z,11.43
2018-12-31T02:42:51.411Z,12.53
2018-12-31T02:45:21.145Z,12.03
2018-12-31T02:47:50.649Z,11.53
2018-12-31T02:50:19.938Z,11.43
2018-12-31T02:52:49.354Z,11.90
2018-12-31T02:55:18.745Z,11.57
2018-12-31T02:57:48.192Z,11.70
2018-12-31T03:00:17.565Z,11.00
2018-12-31T03:02:46.976Z,11.27
2018-12-31T03:05:16.663Z,10.80
2018-12-31T03:07:46.053Z,11.03
2018-12-31T03:10:15.324Z,10.90
2018-12-31T03:12:44.729Z,10.43
2018-12-31T03:15:14.058Z,11.40
2018-12-31T03:17:43.379Z,11.57
2018-12-31T03:20:12.766Z,11.87
2018-12-31T03:22:42.573Z,11.20
2018-12-31T03:25:11.908Z,11.63
2018-12-31T03:27:41.226Z,11.80
2018-12-31T03:30:10.714Z,11.90
2018-12-31T03:32:39.925Z,11.50
2018-12-31T03:35:09.253Z,11.00
2018-12-31T03:37:38.714Z,11.67
2018-12-31T03:40:08.337Z,11.40
2018-12-31T03:42:37.577Z,12.10
2018-12-31T03:45:07.364Z,10.70
2018-12-31T03:47:36.546Z,11.37
2018-12-31T03:50:06.690Z,10.83
2018-12-31T03:52:36.099Z,10.73
2018-12-31T03:55:05.649Z,10.40
2018-12-31T03:57:34.801Z,11.00
2018-12-31T04:00:04.031Z,11.20
2018-12-31T04:02:33.663Z,10.17
2018-12-31T04:05:02.869Z,10.30
2018-12-31T04:07:32.745Z,10.57
2018-12-31T04:10:02.270Z,10.77
2018-12-31T04:12:31.789Z,10.60
2018-12-31T04:15:01.217Z,9.37
2018-12-31T04:17:30.500Z,9.47
2018-12-31T04:19:59.645Z,10.23
2018-12-31T04:22:28.818Z,10.33
2018-12-31T04:24:58.191Z,9.63
2018-12-31T04:27:27.346Z,9.73
2018-12-31T04:29:56.745Z,9.97
2018-12-31T04:32:25.893Z,10.43
2018-12-31T04:34:55.037Z,10.47
2018-12-31T04:37:24.186Z,10.57
2018-12-31T04:39:53.309Z,10.30
2018-12-31T04:42:22.901Z,10.17
2018-12-31T04:44:52.037Z,10.20
2018-12-31T04:47:21.267Z,10.87
2018-12-31T04:49:50.652Z,10.83
2018-12-31T04:52:19.973Z,10.77
2018-12-31T04:54:49.209Z,9.70
2018-12-31T04:57:18.436Z,11.03
2018-12-31T04:59:47.750Z,10.77
2018-12-31T05:02:16.974Z,10.47
2018-12-31T05:04:46.150Z,10.20
2018-12-31T05:07:15.342Z,10.60
2018-12-31T05:09:44.478Z,11.20
2018-12-31T05:12:14.016Z,10.47
2018-12-31T05:14:43.237Z,10.03
2018-12-31T05:17:12.630Z,10.80
2018-12-31T05:19:41.825Z,10.90
2018-12-31T05:22:11.020Z,10.27
2018-12-31T05:24:40.481Z,9.93
2018-12-31T05:27:09.609Z,10.33
2018-12-31T05:29:39.037Z,10.40
2018-12-31T05:32:08.167Z,10.13
2018-12-31T05:34:37.326Z,9.53
2018-12-31T05:37:06.449Z,10.00
2018-12-31T05:39:35.856Z,10.30
2018-12-31T05:42:05.043Z,10.40
2018-12-31T05:44:34.277Z,10.97
2018-12-31T05:47:03.393Z,10.03
2018-12-31T05:49:32.637Z,9.80
2018-12-31T05:52:01.834Z,10.93
2018-12-31T05:54:31.566Z,9.77
2018-12-31T05:57:00.745Z,10.60
2018-12-31T05:59:30.230Z,9.57
2018-12-31T06:01:59.356Z,10.30
2018-12-31T06:04:28.592Z,9.03
2018-12-31T06:06:57.730Z,9.97
2018-12-31T06:09:27.201Z,10.10
2018-12-31T06:11:56.360Z,11.27
2018-12-31T06:14:25.598Z,10.83
2018-12-31T06:16:54.784Z,10.43
2018-12-31T06:19:23.973Z,11.00
2018-12-31T06:21:53.125Z,10.37
2018-12-31T06:24:22.547Z,9.90
2018-12-31T06:26:51.692Z,10.37
2018-12-31T06:29:20.845Z,10.77
2018-12-31T06:31:50.868Z,10.70
2018-12-31T06:34:20.433Z,10.43
2018-12-31T06:36:49.819Z,9.67
2018-12-31T06:39:19.049Z,10.03
2018-12-31T06:41:48.425Z,9.80
2018-12-31T06:44:17.564Z,9.40
2018-12-31T06:46:47.042Z,9.70
2018-12-31T06:49:16.493Z,9.70
2018-12-31T06:51:45.945Z,10.17
2018-12-31T06:54:15.085Z,9.60
2018-12-31T06:56:44.466Z,9.73
2018-12-31T06:59:13.795Z,9.67
2018-12-31T07:01:43.174Z,9.90
2018-12-31T07:04:12.574Z,10.07
2018-12-31T07:06:42.260Z,10.57
2018-12-31T07:09:11.657Z,10.37
2018-12-31T07:11:40.778Z,9.67
2018-12-31T07:14:10.000Z,9.73
2018-12-31T07:16:39.134Z,9.37
2018-12-31T07:19:08.366Z,10.07
2018-12-31T07:21:37.752Z,9.30
2018-12-31T07:24:06.906Z,9.00
2018-12-31T07:26:36.355Z,8.37
2018-12-31T07:29:05.495Z,9.37
2018-12-31T07:31:34.889Z,9.27
2018-12-31T07:34:04.033Z,9.00
2018-12-31T07:36:33.202Z,8.37
2018-12-31T07:39:02.424Z,8.93
2018-12-31T07:41:31.583Z,8.57
2018-12-31T07:44:01.192Z,9.20
2018-12-31T07:46:30.521Z,8.43
2018-12-31T07:48:59.875Z,8.33
2018-12-31T07:51:29.176Z,8.03
2018-12-31T07:53:58.379Z,8.00
2018-12-31T07:56:27.536Z,7.70
2018-12-31T07:58:56.789Z,8.30
2018-12-31T08:01:26.033Z,8.57
2018-12-31T08:03:55.233Z,9.43
2018-12-31T08:06:24.461Z,9.13
2018-12-31T08:08:53.657Z,8.80
2018-12-31T08:11:22.817Z,8.83
2018-12-31T08:13:51.953Z,9.27
2018-12-31T08:16:21.092Z,8.43
2018-12-31T08:18:50.487Z,9.10
2018-12-31T08:21:19.657Z,8.97
2018-12-31T08:23:48.793Z,8.77
2018-12-31T08:26:18.306Z,8.30
2018-12-31T08:28:48.081Z,8.80
2018-12-31T08:31:17.331Z,9.30
2018-12-31T08:33:46.513Z,8.10
2018-12-31T08:36:15.719Z,8.00
2018-12-31T08:38:44.859Z,8.57
2018-12-31T08:41:14.110Z,7.73
2018-12-31T08:43:43.363Z,7.80
2018-12-31T08:46:12.613Z,7.97
2018-12-31T08:48:42.018Z,7.63
2018-12-31T08:51:11.461Z,8.23
2018-12-31T08:53:40.673Z,7.60
2018-12-31T08:56:10.086Z,8.47
2018-12-31T08:58:39.329Z,7.63
2018-12-31T09:01:08.489Z,7.47
2018-12-31T09:03:37.618Z,8.20
2018-12-31T09:06:07.137Z,6.77
2018-12-31T09:08:36.533Z,7.73
2018-12-31T09:11:05.985Z,7.97
2018-12-31T09:13:35.141Z,8.13
2018-12-31T09:16:04.348Z,7.87
2018-12-31T09:18:33.564Z,8.67
2018-12-31T09:21:02.797Z,8.90
2018-12-31T09:23:31.916Z,8.27
2018-12-31T09:26:01.382Z,8.60
2018-12-31T09:28:32.005Z,7.60
2018-12-31T09:31:01.481Z,9.50
2018-12-31T09:33:30.978Z,8.03
2018-12-31T09:36:00.460Z,7.87
2018-12-31T09:38:29.600Z,8.20
2018-12-31T09:40:58.765Z,9.13
2018-12-31T09:43:27.975Z,9.10
2018-12-31T09:45:57.185Z,9.70
2018-12-31T09:48:26.862Z,10.70
2018-12-31T09:50:56.008Z,8.37
2018-12-31T09:53:25.229Z,12.03
2018-12-31T09:55:54.801Z,7.60
2018-12-31T09:58:23.970Z,8.07
2018-12-31T10:00:53.561Z,7.77
2018-12-31T10:03:23.253Z,9.17
2018-12-31T10:05:52.711Z,7.10
2018-12-31T10:08:21.860Z,8.30
2018-12-31T10:10:51.301Z,9.23
2018-12-31T10:13:20.902Z,8.87
2018-12-31T10:15:50.073Z,7.20
2018-12-31T10:18:19.253Z,7.67
2018-12-31T10:20:48.372Z,7.10
2018-12-31T10:23:17.916Z,7.93
2018-12-31T10:25:47.389Z,8.20
2018-12-31T10:28:16.893Z,9.80
2018-12-31T10:30:46.614Z,7.40
2018-12-31T10:33:15.754Z,8.60
2018-12-31T10:35:45.164Z,8.17
2018-12-31T10:38:14.401Z,7.97
2018-12-31T10:40:43.621Z,9.60
2018-12-31T10:43:12.933Z,21.57
2018-12-31T10:45:42.091Z,8.40
2018-12-31T10:48:11.613Z,7.73
2018-12-31T10:50:40.770Z,7.17
2018-12-31T10:53:09.978Z,7.30
2018-12-31T10:55:39.425Z,10.23
2018-12-31T10:58:08.586Z,11.03
2018-12-31T11:00:37.786Z,10.37
2018-12-31T11:03:07.179Z,7.10
2018-12-31T11:05:36.413Z,7.33
2018-12-31T11:08:05.857Z,7.73
2018-12-31T11:10:35.099Z,7.53
2018-12-31T11:13:04.313Z,7.53
2018-12-31T11:15:33.462Z,7.60
2018-12-31T11:18:02.889Z,7.10
2018-12-31T11:20:32.050Z,7.00
2018-12-31T11:23:01.451Z,8.27
2018-12-31T11:25:30.653Z,13.00
2018-12-31T11:28:00.095Z,11.10
2018-12-31T11:30:31.152Z,9.30
2018-12-31T11:33:00.500Z,8.83
2018-12-31T11:35:29.977Z,7.63
2018-12-31T11:37:59.461Z,7.97
2018-12-31T11:40:28.952Z,9.63
2018-12-31T11:42:58.106Z,10.73
2018-12-31T11:45:27.284Z,7.20
2018-12-31T11:47:56.429Z,7.10
2018-12-31T11:50:25.673Z,7.50
2018-12-31T11:52:54.793Z,8.13
2018-12-31T11:55:23.994Z,8.10
2018-12-31T11:57:53.406Z,9.03
2018-12-31T12:00:22.801Z,8.10
2018-12-31T12:02:51.962Z,7.60
2018-12-31T12:05:21.553Z,7.10
2018-12-31T12:07:50.876Z,7.80
2018-12-31T12:10:20.085Z,7.00
2018-12-31T12:12:49.384Z,6.93
2018-12-31T12:15:18.951Z,7.33
2018-12-31T12:17:48.273Z,7.33
2018-12-31T12:20:17.812Z,7.70
2018-12-31T12:22:47.145Z,9.73
2018-12-31T12:25:16.402Z,7.63
2018-12-31T12:27:45.713Z,8.57
2018-12-31T12:30:15.025Z,6.73
2018-12-31T12:32:44.242Z,7.33
2018-12-31T12:35:13.495Z,7.17
2018-12-31T12:37:48.467Z,7.20
2018-12-31T12:40:13.641Z,6.83
2018-12-31T12:42:42.845Z,6.90
2018-12-31T12:45:12.081Z,6.83
2018-12-31T12:47:41.472Z,6.17
2018-12-31T12:50:11.305Z,6.90
2018-12-31T12:52:41.186Z,6.27
2018-12-31T12:55:10.674Z,6.83
2018-12-31T12:57:40.147Z,7.87
2018-12-31T13:00:09.397Z,6.30
2018-12-31T13:02:38.868Z,7.10
2018-12-31T13:05:08.067Z,6.83
2018-12-31T13:07:37.453Z,6.67
2018-12-31T13:10:06.687Z,7.43
2018-12-31T13:12:35.902Z,8.30
2018-12-31T13:15:05.611Z,6.33
2018-12-31T13:17:34.814Z,6.07
2018-12-31T13:20:04.813Z,6.43
2018-12-31T13:22:34.624Z,7.50
2018-12-31T13:25:03.853Z,6.27
2018-12-31T13:27:33.218Z,6.07
2018-12-31T13:30:02.438Z,6.77
2018-12-31T13:32:31.792Z,6.77
2018-12-31T13:35:01.017Z,6.90
2018-12-31T13:37:30.216Z,6.33
2018-12-31T13:39:59.470Z,5.63
2018-12-31T13:42:28.782Z,6.50
2018-12-31T13:44:58.262Z,6.30
2018-12-31T13:47:27.481Z,7.07
2018-12-31T13:49:56.830Z,6.70
2018-12-31T13:52:25.981Z,7.53
2018-12-31T13:54:55.101Z,6.23
2018-12-31T13:57:24.257Z,6.13
2018-12-31T13:59:53.455Z,6.37
2018-12-31T14:02:22.706Z,7.30
2018-12-31T14:04:51.891Z,6.23
2018-12-31T14:07:21.062Z,6.63
2018-12-31T14:09:50.256Z,7.73
2018-12-31T14:12:19.833Z,11.90
2018-12-31T14:14:48.956Z,9.23
2018-12-31T14:17:18.109Z,8.13
2018-12-31T14:19:47.874Z,7.63
2018-12-31T14:22:17.029Z,7.40
2018-12-31T14:24:46.269Z,6.67
2018-12-31T14:27:15.617Z,6.87
2018-12-31T14:29:44.903Z,7.33
2018-12-31T14:32:14.674Z,6.90
2018-12-31T14:34:43.930Z,6.47
2018-12-31T14:37:13.410Z,7.00
2018-12-31T14:39:43.063Z,7.57
2018-12-31T14:42:12.290Z,7.23
2018-12-31T14:44:41.498Z,7.67
2018-12-31T14:47:18.113Z,6.80
2018-12-31T14:49:41.749Z,7.37
2018-12-31T14:52:11.162Z,7.03
2018-12-31T14:54:40.349Z,7.20
2018-12-31T14:57:09.505Z,7.10
2018-12-31T14:59:38.933Z,6.80
2018-12-31T15:02:08.153Z,7.33
2018-12-31T15:04:37.799Z,8.07
2018-12-31T15:07:07.108Z,8.47
2018-12-31T15:09:36.604Z,7.97
2018-12-31T15:12:06.064Z,7.90
2018-12-31T15:14:35.925Z,8.10
2018-12-31T15:17:05.169Z,8.03
2018-12-31T15:19:34.578Z,8.83
2018-12-31T15:22:04.115Z,8.53
2018-12-31T15:24:33.706Z,8.27
2018-12-31T15:27:03.314Z,8.80
2018-12-31T15:29:32.691Z,9.43
2018-12-31T15:32:02.623Z,7.90
2018-12-31T15:34:32.281Z,8.90
2018-12-31T15:37:01.672Z,9.23
2018-12-31T15:39:30.987Z,12.20
2018-12-31T15:42:00.304Z,8.87
2018-12-31T15:44:29.938Z,9.23
2018-12-31T15:46:59.208Z,9.47
2018-12-31T15:49:29.426Z,9.27
2018-12-31T15:51:58.709Z,9.47
2018-12-31T15:54:27.905Z,9.30
2018-12-31T15:56:57.917Z,9.20
2018-12-31T15:59:27.271Z,9.73
2018-12-31T16:01:56.718Z,8.77
2018-12-31T16:04:26.034Z,9.73
2018-12-31T16:06:55.675Z,9.97
2018-12-31T16:09:24.976Z,10.07
2018-12-31T16:11:54.790Z,10.53
2018-12-31T16:14:24.104Z,10.13
2018-12-31T16:16:53.331Z,9.17
2018-12-31T16:19:22.719Z,9.67
2018-12-31T16:21:51.964Z,10.23
2018-12-31T16:24:21.429Z,10.27
2018-12-31T16:26:50.792Z,10.77
2018-12-31T16:29:20.093Z,10.50
2018-12-31T16:31:49.397Z,11.00
2018-12-31T16:34:18.595Z,11.47
2018-12-31T16:36:48.389Z,10.63
2018-12-31T16:39:17.698Z,10.77
2018-12-31T16:41:46.915Z,43.30
2018-12-31T16:44:16.195Z,15.20
2018-12-31T16:46:45.387Z,11.77
2018-12-31T16:49:14.606Z,11.37
2018-12-31T16:51:44.349Z,11.83
2018-12-31T16:54:13.787Z,12.57
2018-12-31T16:56:43.241Z,13.00
2018-12-31T16:59:12.742Z,12.20
2018-12-31T17:01:41.968Z,13.13
2018-12-31T17:04:11.226Z,12.67
2018-12-31T17:06:40.431Z,13.67
2018-12-31T17:09:09.993Z,13.00
2018-12-31T17:11:39.241Z,13.73
2018-12-31T17:14:08.989Z,13.47
2018-12-31T17:16:38.449Z,12.27
2018-12-31T17:19:07.701Z,12.97
2018-12-31T17:21:37.120Z,12.80
2018-12-31T17:24:06.365Z,12.73
2018-12-31T17:26:35.800Z,14.83
2018-12-31T17:29:05.386Z,13.40
2018-12-31T17:31:34.585Z,13.47
2018-12-31T17:34:03.832Z,13.70
2018-12-31T17:36:33.445Z,13.53
2018-12-31T17:39:03.790Z,15.23
2018-12-31T17:41:32.942Z,16.20
2018-12-31T17:44:02.170Z,14.07
2018-12-31T17:46:31.821Z,13.93
2018-12-31T17:49:01.729Z,14.17
2018-12-31T17:51:31.181Z,14.47
2018-12-31T17:54:00.597Z,15.57
2018-12-31T17:56:29.809Z,19.73
2018-12-31T17:58:59.105Z,15.77
2018-12-31T18:01:28.581Z,17.43
2018-12-31T18:03:57.792Z,17.40
2018-12-31T18:06:26.943Z,16.63
2018-12-31T18:08:56.300Z,18.07
2018-12-31T18:11:25.585Z,17.53
2018-12-31T18:13:54.790Z,17.73
2018-12-31T18:16:23.946Z,17.73
2018-12-31T18:18:53.180Z,17.97
2018-12-31T18:21:22.492Z,18.67
2018-12-31T18:23:51.901Z,17.70
2018-12-31T18:26:21.055Z,18.00
2018-12-31T18:28:50.272Z,18.83
2018-12-31T18:31:19.754Z,25.60
2018-12-31T18:33:48.971Z,27.33
2018-12-31T18:36:18.833Z,29.43
2018-12-31T18:38:48.430Z,22.80
2018-12-31T18:41:17.637Z,23.90
2018-12-31T18:43:46.942Z,19.50
2018-12-31T18:46:16.298Z,21.17
2018-12-31T18:48:46.294Z,18.20
2018-12-31T18:51:15.755Z,20.27
2018-12-31T18:53:45.556Z,17.50
2018-12-31T18:56:14.844Z,19.07
2018-12-31T18:58:44.206Z,18.10
2018-12-31T19:01:14.977Z,18.90
2018-12-31T19:03:44.277Z,18.53
2018-12-31T19:06:13.699Z,18.50
2018-12-31T19:08:42.909Z,18.83
2018-12-31T19:11:12.426Z,18.10
2018-12-31T19:13:42.022Z,18.07
2018-12-31T19:16:12.254Z,18.40
2018-12-31T19:18:41.551Z,19.07
2018-12-31T19:21:10.889Z,19.27
2018-12-31T19:23:40.312Z,19.03
2018-12-31T19:26:10.105Z,18.80
2018-12-31T19:28:39.790Z,18.63
2018-12-31T19:31:09.132Z,17.73
2018-12-31T19:33:38.449Z,19.07
2018-12-31T19:36:07.731Z,19.33
2018-12-31T19:38:37.184Z,20.87
2018-12-31T19:41:06.406Z,17.93
2018-12-31T19:43:36.036Z,18.67
2018-12-31T19:46:05.533Z,18.83
2018-12-31T19:48:34.819Z,20.53
2018-12-31T19:51:04.438Z,19.80
2018-12-31T19:53:33.731Z,19.97
2018-12-31T19:56:03.434Z,20.40
2018-12-31T19:58:32.709Z,19.97
2018-12-31T20:01:02.266Z,20.47
2018-12-31T20:03:31.777Z,23.00
2018-12-31T20:06:01.093Z,21.90
2018-12-31T20:08:30.686Z,22.80
2018-12-31T20:11:00.093Z,26.87
2018-12-31T20:13:30.982Z,29.43
2018-12-31T20:16:02.227Z,28.53
2018-12-31T20:18:32.220Z,29.30
2018-12-31T20:21:03.975Z,41.53
2018-12-31T20:23:33.300Z,28.87
2018-12-31T20:26:02.643Z,23.87
2018-12-31T20:28:32.561Z,23.57
2018-12-31T20:31:02.132Z,25.70
2018-12-31T20:33:31.420Z,25.67
2018-12-31T20:36:00.802Z,26.40
2018-12-31T20:38:30.177Z,28.23
2018-12-31T20:40:59.876Z,39.47
2018-12-31T20:43:29.558Z,30.27
2018-12-31T20:45:58.928Z,27.70
2018-12-31T20:48:28.337Z,26.87
2018-12-31T20:50:58.081Z,23.87
2018-12-31T20:53:29.450Z,23.10
2018-12-31T20:55:59.077Z,22.33
2018-12-31T20:58:29.368Z,22.23
2018-12-31T21:00:58.937Z,26.57
2018-12-31T21:03:28.673Z,25.83
2018-12-31T21:05:58.636Z,35.03
2018-12-31T21:08:28.500Z,26.87
2018-12-31T21:10:58.028Z,26.27
2018-12-31T21:13:27.453Z,26.90
2018-12-31T21:15:57.517Z,27.50
2018-12-31T21:18:27.236Z,30.53
2018-12-31T21:20:56.760Z,25.97
2018-12-31T21:23:26.579Z,27.20
2018-12-31T21:25:58.782Z,27.20
2018-12-31T21:28:28.854Z,27.07
2018-12-31T21:30:58.833Z,27.40
2018-12-31T21:33:28.300Z,25.20
2018-12-31T21:35:58.223Z,24.87
2018-12-31T21:38:27.865Z,24.77
2018-12-31T21:40:57.293Z,24.90
2018-12-31T21:43:43.000Z,23.37
2018-12-31T21:46:28.477Z,24.57
2018-12-31T21:49:06.475Z,24.50
2018-12-31T21:51:45.828Z,23.67
2018-12-31T21:54:26.713Z,28.67
2018-12-31T21:57:06.511Z,30.37
2018-12-31T21:59:49.135Z,35.27
2018-12-31T22:02:18.863Z,42.30
2018-12-31T22:04:48.327Z,44.60
2018-12-31T22:07:18.148Z,31.67
2018-12-31T22:09:47.530Z,29.03
2018-12-31T22:12:17.804Z,27.17
2018-12-31T22:14:47.481Z,35.37
2018-12-31T22:17:18.424Z,31.90
2018-12-31T22:19:47.835Z,35.50
2018-12-31T22:22:17.413Z,28.17
2018-12-31T22:24:47.061Z,25.27
2018-12-31T22:27:16.489Z,27.13
2018-12-31T22:29:45.905Z,26.40
2018-12-31T22:32:15.339Z,35.27
2018-12-31T22:34:45.062Z,25.20
2018-12-31T22:37:14.456Z,25.97
2018-12-31T22:39:43.726Z,30.87
2018-12-31T22:42:13.397Z,37.53
2018-12-31T22:44:43.050Z,49.00
2018-12-31T22:47:12.673Z,47.93
2018-12-31T22:49:42.039Z,46.07
2018-12-31T22:52:11.577Z,52.13
2018-12-31T22:54:41.336Z,97.83
2018-12-31T22:57:10.615Z,80.23
2018-12-31T22:59:39.869Z,999.90
2018-12-31T23:02:09.465Z,338.53
2018-12-31T23:04:39.116Z,274.23
2018-12-31T23:07:09.960Z,806.80
2018-12-31T23:09:41.405Z,357.97
2018-12-31T23:12:10.722Z,286.90
2018-12-31T23:14:40.117Z,279.07
2018-12-31T23:17:11.934Z,292.73
2018-12-31T23:19:42.137Z,262.10
2018-12-31T23:22:11.877Z,237.40
2018-12-31T23:24:41.565Z,215.60
2018-12-31T23:27:12.056Z,281.67
2018-12-31T23:29:41.655Z,223.73
2018-12-31T23:32:11.229Z,240.63
2018-12-31T23:34:40.733Z,283.13
2018-12-31T23:37:10.209Z,300.23
2018-12-31T23:39:40.046Z,269.27
2018-12-31T23:42:09.403Z,290.83
2018-12-31T23:44:38.581Z,313.37
2018-12-31T23:47:08.530Z,348.97
2018-12-31T23:49:38.982Z,292.50
2018-12-31T23:52:08.997Z,278.57
2018-12-31T23:54:38.866Z,248.70
2018-12-31T23:57:08.408Z,242.40
2018-12-31T23:59:37.706Z,217.60
